Flight Track Log - Related Links

Times and Time Zones

All times are in EDT time to prevent confusion due to time zone crossing. See the ASA123 flight status page for this flight to view local times or setup timezone preferences in your user account.

Time Position Orientation Groundspeed Altitude Reporting Facility
EDT Latitude Longitude Course Direction KTS MPH feet Rate Location/Type
Tue 05:03:37 PM 47.4353 -122.3103 176° South 150 173 1,200  Level Seattle Center
Tue 05:03:55 PM 47.4225 -122.3089 176° South 161 185 1,800 1,747 Climbing Seattle Center
Tue 05:04:56 PM 47.3742 -122.3089 180° South 174 200 3,500 1,951 Climbing Seattle Center
Tue 05:05:58 PM 47.3175 -122.3481 205° Southwest 224 258 5,800 2,146 Climbing Seattle Center
Tue 05:06:59 PM 47.3108 -122.4481 264° West 249 287 7,900 2,508 Climbing Seattle Center
Tue 05:08:00 PM 47.3522 -122.5372 304° West 262 302 10,900 2,557 Climbing Seattle Center
Tue 05:09:01 PM 47.4106 -122.6128 319° Northwest 278 320 13,100 1,918 Climbing Seattle Center
Tue 05:10:02 PM 47.4819 -122.7056 319° Northwest 341 392 14,800 2,146 Climbing Seattle Center
Tue 05:11:04 PM 47.5672 -122.7956 325° Northwest 372 428 17,500 2,390 Climbing Seattle Center
Tue 05:12:05 PM 47.6469 -122.8803 324° Northwest 380 437 19,700 2,410 Climbing Seattle Center
Tue 05:13:06 PM 47.7372 -122.9747 325° Northwest 390 449 22,400 2,607 Climbing Seattle Center
Tue 05:14:07 PM 47.8469 -123.0911 325° Northwest 398 458 25,000 2,262 Climbing Seattle Center
Tue 05:15:08 PM 47.9406 -123.1900 325° Northwest 405 466 27,000 2,049 Climbing Seattle Center
Tue 05:16:10 PM 48.0344 -123.2908 324° Northwest 409 471 29,200 1,854 Climbing Seattle Center
Tue 05:17:11 PM 48.1150 -123.3758 325° Northwest 411 473 30,800 1,657 Climbing Seattle Center
Tue 05:17:55 PM 48.1833 -123.4667 318° Northwest 410 472 32,100 1,269 Climbing Vancouver Center
Tue 05:18:55 PM 48.2667 -123.5667 321° Northwest 420 483 33,000 800 Climbing Vancouver Center
Tue 05:19:55 PM 48.3667 -123.6667 326° Northwest 430 495 33,700 450 Climbing Vancouver Center
Tue 05:20:55 PM 48.4667 -123.7667 326° Northwest 430 495 33,900 150 Climbing Vancouver Center
Tue 05:21:55 PM 48.5667 -123.8833 322° Northwest 430 495 34,000 350 Climbing Vancouver Center
Tue 05:22:55 PM 48.6667 -124.0000 322° Northwest 430 495 34,600 800 Climbing Vancouver Center
Tue 05:23:55 PM 48.7500 -124.1000 322° Northwest 430 495 35,600 850 Climbing Vancouver Center
Tue 05:24:55 PM 48.8500 -124.2000 327° Northwest 430 495 36,300 800 Climbing Vancouver Center
Tue 05:25:55 PM 48.9500 -124.3000 327° Northwest 430 495 37,200 800 Climbing Vancouver Center
Tue 05:26:55 PM 49.0500 -124.4167 323° Northwest 430 495 37,900 400 Climbing Vancouver Center
Tue 05:27:55 PM 49.1500 -124.5333 323° Northwest 440 506 38,000 50 Climbing Vancouver Center
Tue 05:28:55 PM 49.2500 -124.6500 323° Northwest 440 506 38,000  Level Vancouver Center
Tue 05:29:55 PM 49.3500 -124.7667 323° Northwest 440 506 38,000  Level Vancouver Center
Tue 05:30:55 PM 49.4500 -124.8833 323° Northwest 440 506 38,000  Level Vancouver Center
Tue 05:31:55 PM 49.5500 -124.9833 327° Northwest 440 506 38,000  Level Vancouver Center
Tue 05:32:55 PM 49.6500 -125.1167 319° Northwest 440 506 38,000  Level Vancouver Center
Tue 05:33:55 PM 49.7500 -125.2167 327° Northwest 440 506 38,000  Level Vancouver Center
Tue 05:34:55 PM 49.8500 -125.3333 323° Northwest 440 506 38,000  Level Vancouver Center
Tue 05:35:55 PM 49.9333 -125.4667 314° West 440 506 38,000  Level Vancouver Center
Tue 05:36:55 PM 50.0500 -125.5667 331° Northwest 440 506 38,000  Level Vancouver Center
Tue 05:37:55 PM 50.1500 -125.6667 327° Northwest 450 518 38,000  Level Vancouver Center
Tue 05:38:55 PM 50.2333 -125.8167 311° West 450 518 38,000  Level Vancouver Center
Tue 05:39:55 PM 50.3333 -125.9167 327° Northwest 450 518 38,000  Level Vancouver Center
Tue 05:40:55 PM 50.4167 -126.0333 318° Northwest 450 518 38,000  Level Vancouver Center
Tue 05:41:55 PM 50.5333 -126.1667 324° Northwest 450 518 38,000  Level Vancouver Center
Tue 05:42:55 PM 50.6333 -126.2667 328° Northwest 450 518 38,000  Level Vancouver Center
Tue 05:43:55 PM 50.7333 -126.3833 324° Northwest 450 518 38,000  Level Vancouver Center
Tue 05:44:55 PM 50.8333 -126.5167 320° Northwest 450 518 38,000  Level Vancouver Center
Tue 05:45:55 PM 50.9167 -126.6333 319° Northwest 450 518 38,000  Level Vancouver Center
Tue 05:46:55 PM 51.0167 -126.7500 324° Northwest 450 518 38,000  Level Vancouver Center
Tue 05:47:55 PM 51.1167 -126.8833 320° Northwest 450 518 38,000  Level Vancouver Center
Tue 05:48:55 PM 51.2167 -127.0000 324° Northwest 450 518 38,000  Level Vancouver Center
Tue 05:49:55 PM 51.3167 -127.1333 320° Northwest 450 518 38,000  Level Vancouver Center
Tue 05:50:55 PM 51.4167 -127.2500 324° Northwest 450 518 38,000  Level Vancouver Center
Tue 05:51:55 PM 51.5000 -127.4000 312° West 450 518 38,000  Level Vancouver Center
Tue 05:52:55 PM 51.6000 -127.5167 324° Northwest 450 518 38,000  Level Vancouver Center
Tue 05:53:55 PM 51.7167 -127.6500 325° Northwest 450 518 38,000  Level Vancouver Center
Tue 05:54:55 PM 51.8167 -127.7667 324° Northwest 460 529 38,000  Level Vancouver Center
Tue 05:55:55 PM 51.9000 -127.9167 312° West 460 529 38,000  Level Vancouver Center
Tue 05:56:55 PM 52.0000 -128.0333 324° Northwest 460 529 38,000  Level Vancouver Center
Tue 05:57:55 PM 52.1000 -128.1667 321° Northwest 460 529 38,000  Level Vancouver Center
Tue 05:58:55 PM 52.2000 -128.3000 321° Northwest 450 518 38,000  Level Vancouver Center
Tue 05:59:55 PM 52.2833 -128.4167 319° Northwest 450 518 38,000  Level Vancouver Center
Tue 06:00:55 PM 52.4000 -128.5667 322° Northwest 450 518 38,000  Level Vancouver Center
Tue 06:01:55 PM 52.4833 -128.6833 320° Northwest 450 518 38,000  Level Vancouver Center
Tue 06:02:55 PM 52.5833 -128.8333 318° Northwest 450 518 38,000  Level Vancouver Center
Tue 06:03:55 PM 52.6833 -128.9500 325° Northwest 460 529 38,000  Level Vancouver Center
Tue 06:04:55 PM 52.7833 -129.0667 325° Northwest 460 529 38,000  Level Vancouver Center
Tue 06:05:55 PM 52.8833 -129.2167 318° Northwest 460 529 38,000  Level Vancouver Center
Tue 06:06:55 PM 52.9833 -129.3500 321° Northwest 460 529 38,000  Level Vancouver Center
Tue 06:07:55 PM 53.0833 -129.5000 318° Northwest 460 529 38,000  Level Vancouver Center
Tue 06:08:55 PM 53.1667 -129.6500 313° West 460 529 38,000  Level Vancouver Center
Tue 06:09:55 PM 53.2667 -129.7667 325° Northwest 460 529 38,000  Level Vancouver Center
Tue 06:10:55 PM 53.3667 -129.9333 315° West 460 529 38,000  Level Vancouver Center
Tue 06:11:55 PM 53.4667 -130.0500 325° Northwest 460 529 38,000  Level Vancouver Center
Tue 06:12:55 PM 53.5667 -130.2167 315° West 460 529 38,000  Level Vancouver Center
Tue 06:13:55 PM 53.6500 -130.3333 320° Northwest 460 529 38,000  Level Vancouver Center
Tue 06:14:55 PM 53.7667 -130.5000 320° Northwest 460 529 38,000  Level Vancouver Center
Tue 06:15:55 PM 53.8500 -130.6167 320° Northwest 460 529 38,000  Level Vancouver Center
Tue 06:16:55 PM 53.9500 -130.7833 316° Northwest 460 529 38,000  Level Vancouver Center
Tue 06:17:55 PM 54.0333 -130.9167 317° Northwest 460 529 38,000  Level Vancouver Center
Tue 06:18:55 PM 54.1333 -131.0667 319° Northwest 450 518 38,000  Level Vancouver Center
Tue 06:19:55 PM 54.2333 -131.2000 322° Northwest 450 518 38,000  Level Vancouver Center
Tue 06:20:55 PM 54.3333 -131.3667 316° Northwest 450 518 38,000  Level Vancouver Center
Tue 06:21:55 PM 54.4333 -131.5000 322° Northwest 450 518 38,000  Level Vancouver Center
Tue 06:22:55 PM 54.5000 -131.6167 315° West 450 518 38,000  Level Vancouver Center
Tue 06:23:55 PM 54.6000 -131.7833 316° Northwest 450 518 38,000  Level Vancouver Center
Tue 06:24:55 PM 54.7000 -131.9167 322° Northwest 450 518 38,000  Level Vancouver Center
Tue 06:25:55 PM 54.7833 -132.0833 311° West 450 518 38,000  Level Vancouver Center
Tue 06:26:55 PM 54.8833 -132.2167 323° Northwest 460 529 38,000  Level Vancouver Center
Tue 06:27:55 PM 54.9667 -132.3833 311° West 450 518 38,000  Level Vancouver Center
Tue 06:28:55 PM 55.0667 -132.5167 323° Northwest 460 529 38,000  Level Vancouver Center
Tue 06:29:55 PM 55.1667 -132.6833 316° Northwest 460 529 38,000  Level Vancouver Center
Tue 06:30:55 PM 55.2500 -132.8167 318° Northwest 450 518 38,000  Level Vancouver Center
Tue 06:31:55 PM 55.3500 -132.9667 320° Northwest 450 518 38,000  Level Vancouver Center
Tue 06:32:55 PM 55.4333 -133.1333 311° West 460 529 38,000  Level Vancouver Center
Tue 06:33:55 PM 55.5333 -133.2667 323° Northwest 460 529 38,000  Level Vancouver Center
Tue 06:34:55 PM 55.6167 -133.4333 312° West 460 529 38,000  Level Vancouver Center
Tue 06:35:55 PM 55.7000 -133.5833 315° West 460 529 38,000  Level Vancouver Center
Tue 06:37:19 PM 55.8500 -133.7500 328° Northwest 450 518 38,000  Level Anchorage Center
Tue 06:38:19 PM 55.9333 -133.9000 315° West 460 529 38,000  Level Anchorage Center
Tue 06:39:19 PM 56.0333 -134.0667 317° Northwest 460 529 38,000  Level Anchorage Center
Tue 06:39:55 PM 56.0667 -134.2167 292° West 460 529 38,000  Level Vancouver Center
Tue 06:40:55 PM 56.1667 -134.3500 323° Northwest 460 529 38,000  Level Vancouver Center
Tue 06:41:55 PM 56.2500 -134.5333 309° West 460 529 38,000  Level Vancouver Center
Tue 06:42:55 PM 56.3333 -134.6833 315° West 460 529 38,000  Level Vancouver Center
Tue 06:43:55 PM 56.4333 -134.8500 317° Northwest 460 529 38,000  Level Vancouver Center
Tue 06:44:55 PM 56.5333 -135.0000 320° Northwest 460 529 38,000  Level Vancouver Center
Tue 06:45:55 PM 56.6167 -135.1833 310° West 460 529 38,000  Level Vancouver Center
Tue 06:46:55 PM 56.7000 -135.3333 315° West 460 529 38,000  Level Vancouver Center
Tue 06:47:55 PM 56.7833 -135.5167 310° West 460 529 38,000  Level Vancouver Center
Tue 06:49:21 PM 56.9000 -135.6500 328° Northwest 450 518 38,000  Level Anchorage Center
Tue 06:50:20 PM 56.9833 -135.8500 307° West 460 529 38,000  Level Anchorage Center
Tue 06:51:21 PM 57.0667 -136.0667 305° West 470 541 38,000  Level Anchorage Center
Tue 06:52:21 PM 57.1500 -136.2500 310° West 470 541 38,000  Level Anchorage Center
Tue 06:53:21 PM 57.2333 -136.4333 310° West 460 529 38,000  Level Anchorage Center
Tue 06:54:21 PM 57.3000 -136.6167 304° West 460 529 38,000  Level Anchorage Center
Tue 06:55:21 PM 57.3833 -136.8167 308° West 470 541 38,000  Level Anchorage Center
Tue 06:56:21 PM 57.4667 -137.0000 310° West 470 541 38,000  Level Anchorage Center
Tue 06:57:21 PM 57.5333 -137.2000 302° West 470 541 38,000  Level Anchorage Center
Tue 06:58:21 PM 57.6167 -137.4000 308° West 470 541 38,000  Level Anchorage Center
Tue 06:59:22 PM 57.6833 -137.5833 304° West 470 541 38,000  Level Anchorage Center
Tue 07:00:22 PM 57.7667 -137.7833 308° West 470 541 38,000  Level Anchorage Center
Tue 07:01:22 PM 57.8500 -137.9833 308° West 470 541 38,000  Level Anchorage Center
Tue 07:02:22 PM 57.9167 -138.1833 302° West 460 529 38,000  Level Anchorage Center
Tue 07:03:22 PM 58.0000 -138.3667 311° West 460 529 38,000  Level Anchorage Center
Tue 07:04:22 PM 58.0667 -138.5667 302° West 460 529 38,000  Level Anchorage Center
Tue 07:05:22 PM 58.1500 -138.7667 308° West 460 529 38,000  Level Anchorage Center
Tue 07:06:22 PM 58.2167 -138.9500 305° West 460 529 38,000  Level Anchorage Center
Tue 07:07:22 PM 58.3000 -139.1500 308° West 470 541 38,000  Level Anchorage Center
Tue 07:08:22 PM 58.3500 -139.3167 300° West 450 518 38,000  Level Anchorage Center
Tue 07:09:23 PM 58.4333 -139.5500 304° West 460 529 38,000  Level Anchorage Center
Tue 07:10:23 PM 58.5000 -139.7167 307° West 450 518 38,000  Level Anchorage Center
Tue 07:11:23 PM 58.5833 -139.9167 309° West 450 518 38,000  Level Anchorage Center
Tue 07:12:23 PM 58.6667 -140.1333 307° West 450 518 38,000  Level Anchorage Center
Tue 07:13:23 PM 58.7333 -140.3333 303° West 460 529 38,000  Level Anchorage Center
Tue 07:14:23 PM 58.8000 -140.5167 305° West 460 529 38,000  Level Anchorage Center
Tue 07:15:23 PM 58.9000 -140.6833 319° Northwest 460 529 38,000  Level Anchorage Center
Tue 07:16:23 PM 58.9833 -140.8667 311° West 460 529 38,000  Level Anchorage Center
Tue 07:17:24 PM 59.1000 -141.0500 321° Northwest 460 529 38,000  Level Anchorage Center
Tue 07:18:23 PM 59.1833 -141.2000 317° Northwest 470 541 38,000  Level Anchorage Center
Tue 07:19:24 PM 59.2833 -141.3667 320° Northwest 460 529 38,000  Level Anchorage Center
Tue 07:20:24 PM 59.3667 -141.5500 312° West 460 529 38,000  Level Anchorage Center
Tue 07:21:24 PM 59.4667 -141.7167 320° Northwest 460 529 38,000  Level Anchorage Center
Tue 07:22:24 PM 59.5500 -141.9000 312° West 460 529 38,000  Level Anchorage Center
Tue 07:23:24 PM 59.6500 -142.0667 320° Northwest 460 529 38,000  Level Anchorage Center
Tue 07:24:24 PM 59.7500 -142.2500 317° Northwest 460 529 38,000  Level Anchorage Center
Tue 07:25:24 PM 59.8333 -142.4333 312° West 460 529 38,000  Level Anchorage Center
Tue 07:26:24 PM 59.9333 -142.6000 320° Northwest 470 541 38,000  Level Anchorage Center
Tue 07:27:24 PM 60.0333 -142.7833 318° Northwest 460 529 38,000  Level Anchorage Center
Tue 07:28:24 PM 60.1167 -142.9667 312° West 460 529 38,000  Level Anchorage Center
Tue 07:29:25 PM 60.2167 -143.1500 318° Northwest 460 529 38,000  Level Anchorage Center
Tue 07:30:25 PM 60.3000 -143.3333 313° West 460 529 38,000  Level Anchorage Center
Tue 07:31:25 PM 60.4000 -143.5167 318° Northwest 460 529 38,000  Level Anchorage Center
Tue 07:32:25 PM 60.4833 -143.7000 313° West 460 529 38,000  Level Anchorage Center
Tue 07:33:25 PM 60.5833 -143.8833 318° Northwest 460 529 38,000  Level Anchorage Center
Tue 07:34:25 PM 60.6667 -144.0667 313° West 460 529 38,000  Level Anchorage Center
Tue 07:35:25 PM 60.7667 -144.2667 316° Northwest 470 541 38,000  Level Anchorage Center
Tue 07:36:25 PM 60.8500 -144.4500 313° West 470 541 38,000  Level Anchorage Center
Tue 07:37:26 PM 60.9500 -144.6333 318° Northwest 470 541 38,000  Level Anchorage Center
Tue 07:38:26 PM 61.0333 -144.8333 311° West 470 541 38,000  Level Anchorage Center
Tue 07:39:25 PM 61.1333 -145.0333 316° Northwest 460 529 38,000  Level Anchorage Center
Tue 07:40:26 PM 61.2167 -145.2167 313° West 470 541 38,000  Level Anchorage Center
Tue 07:41:26 PM 61.3000 -145.4167 311° West 460 529 38,000  Level Anchorage Center
Tue 07:42:26 PM 61.4000 -145.6167 316° Northwest 460 529 38,000  Level Anchorage Center
Tue 07:43:26 PM 61.4833 -145.8167 311° West 460 529 38,000  Level Anchorage Center
Tue 07:44:26 PM 61.5833 -146.0167 316° Northwest 460 529 38,000 -150 Level Anchorage Center
Tue 07:45:26 PM 61.6667 -146.2167 311° West 460 529 37,700 -500 Descending Anchorage Center
Tue 07:46:26 PM 61.7500 -146.4167 311° West 470 541 37,000 -744 Descending Anchorage Center
Tue 07:47:27 PM 61.8500 -146.6333 314° West 460 529 36,200 -843 Descending Anchorage Center
Tue 07:48:27 PM 61.9333 -146.8167 314° West 470 541 35,300 -600 Descending Anchorage Center
Tue 07:49:27 PM 62.0167 -147.0167 312° West 460 529 35,000 -150 Descending Anchorage Center
Tue 07:50:27 PM 62.1167 -147.2167 317° Northwest 460 529 35,000  Level Anchorage Center
Tue 07:51:27 PM 62.2167 -147.3833 322° Northwest 460 529 35,000  Level Anchorage Center
Tue 07:52:27 PM 62.3167 -147.5833 317° Northwest 460 529 35,000  Level Anchorage Center
Tue 07:53:27 PM 62.4000 -147.7667 314° West 460 529 35,000  Level Anchorage Center
Tue 07:54:27 PM 62.4833 -147.9500 315° West 460 529 35,000  Level Anchorage Center
Tue 07:55:27 PM 62.5833 -148.1500 317° Northwest 470 541 35,000  Level Anchorage Center
Tue 07:56:27 PM 62.6833 -148.3333 320° Northwest 460 529 35,000  Level Anchorage Center
Tue 07:57:27 PM 62.7833 -148.5333 318° Northwest 460 529 35,000  Level Anchorage Center
Tue 07:58:27 PM 62.8667 -148.7333 312° West 470 541 35,000 -397 Level Anchorage Center
Tue 07:59:28 PM 62.9667 -148.9333 318° Northwest 460 529 34,200 -1,736 Descending Anchorage Center
Tue 08:00:28 PM 63.0833 -148.9333 360° North 450 518 31,500 -2,600 Descending Anchorage Center
Tue 08:01:28 PM 63.2167 -148.8667 13° North 460 529 29,000 -2,450 Descending Anchorage Center
Tue 08:02:28 PM 63.3333 -148.8000 14° North 460 529 26,600 -2,250 Descending Anchorage Center
Tue 08:03:28 PM 63.4500 -148.7333 14° North 440 506 24,500 -2,050 Descending Anchorage Center
Tue 08:04:28 PM 63.5667 -148.6833 11° North 420 483 22,500 -1,956 Descending Anchorage Center
Tue 08:06:29 PM 63.7833 -148.5667 13° North 380 437 18,600 -1,967 Descending Anchorage Center
Tue 08:07:28 PM 63.8833 -148.5167 12° North 360 414 16,600 -2,067 Descending Anchorage Center
Tue 08:08:28 PM 63.9833 -148.4500 16° North 350 403 14,500 -2,100 Descending Anchorage Center
Tue 08:10:00 PM 64.1633 -148.3685 12° North  Level FlightAware Approximate
Tue 08:17:00 PM 64.8000 -147.8500 90° East  Level FlightAware Approximate
Tue 08:18:00 PM 64.8151 -147.8564 90° East  Level Estimated
Tue 08:19:00 PM 64.8151 -147.8564 90° East  Level Estimated
Tue 08:20:00 PM 64.8151 -147.8564 90° East  Level Estimated
Tue 08:21:00 PM 64.8151 -147.8564 90° East  Level Estimated
Tue 08:22:00 PM 64.8151 -147.8564 90° East  Level Estimated
Tue 08:23:00 PM 64.8151 -147.8564 90° East  Level Estimated
Tue 08:24:00 PM 64.8151 -147.8564 90° East  Level Estimated
Tue 08:25:00 PM 64.8151 -147.8564 90° East  Level Estimated
Tue 08:26:00 PM 64.8151 -147.8564 90° East  Level Estimated
Tue 08:27:00 PM 64.8151 -147.8564 90° East  Level Estimated
Tue 08:28:00 PM 64.8151 -147.8564 90° East  Level Estimated
Tue 08:29:00 PM 64.8151 -147.8564 90° East  Level Estimated
Tue 08:30:00 PM 64.8151 -147.8564 90° East  Level Estimated
Tue 08:31:00 PM 64.8151 -147.8564 90° East  Level Estimated
Tue 08:32:00 PM 64.8151 -147.8564 90° East  Level Estimated
Tue 08:33:00 PM 64.8151 -147.8564 90° East  Level Estimated
Tue 08:34:00 PM 64.8151 -147.8564 90° East  Level Estimated

Login

Don't have an account? Register now (free) for customized features, flight alerts, and more!